In Rescue
 
Open Full Screen Window  High Contrast Mode
Wind Gusting 00 knots
05
May 25, 2022 10:43 PM EDT
Present Weather: Light Rain
Weather Information
Wind Direction
  030 °
Wind Speed
  05 kt (6 mph)
Wind Gust
  00 kt (0 mph)
Altimeter
29.85 in
Visibility
4 SM
Temperature
07° C
45° F
Dewpoint
07° C
45° F
Humidity
100%
1hr Rain Fall
00.02 in.
24hr Rain Fall
00.25 in.
Sky Condition
Overcast @ 400 ft
LIFR

METAR KSAW 260243Z AUTO 03005KT 4SM -RA OVC004 07/07 A2985 RMK AO2 T00710067 P0002

FAA Disclaimer: The data displayed is for advisory purposes only and is not to be used for flight planning or operations.